Pagrindinis puslapis
METAR-TAF:

METAR-TAF

Oro uostai :

Bandar Kangan, Iranas

platuma: 27-49-14N, ilguma: 52-21-08E, Aukštis: 662 m

Dabartinis oras

Ataskaita buvo paskelbta 1 valandą ir 8 minutes, ne 13:00 UTC
Vėjas 6 kt iš Pietvakarių
Temperatūra 27°C
Drėgmė 51%
Slėgis 1011 hPa
Matomumas 10 km arba daugiau
nėra debesų žemiau 1500 m ir nėra kamuolinių lietaus debesų

METAR: OIBJ 201300Z 23006KT CAVOK 27/16 Q1011 A2985

Laikas: 18:38 (14:08 UTC)


TAF: trūkstamas

Orai ataskaitas ir orų prognozės (METAR, TAF).

turimą stotys yra geltonos ir raudonos taškus žemėlapyje.

Perkelti pele per norėdami pamatyti stoties vardą.

Tada spustelėkite, norėdami matyti oro stebėjimo ir prognozės.

Norėdami pakeisti žemėlapį: spustelėkite ant žalios mygtukų su juodo kryžiaus žemyn,; žalią mygtuką su brūkšneliu, jei norite nutolinti; arba žalių rodyklių gretimoms žemėlapius.


METAR-TAF: